createdAt,value
2018-09-28T00:00:15.361Z,8.30
2018-09-28T00:02:47.574Z,8.20
2018-09-28T00:05:18.103Z,8.20
2018-09-28T00:07:48.152Z,8.10
2018-09-28T00:10:16.208Z,8.10
2018-09-28T00:12:50.229Z,8.00
2018-09-28T00:15:18.369Z,8.00
2018-09-28T00:17:53.575Z,7.90
2018-09-28T00:23:10.682Z,7.80
2018-09-28T00:25:43.830Z,7.70
2018-09-28T00:28:16.103Z,7.70
2018-09-28T00:30:46.209Z,7.70
2018-09-28T00:33:19.443Z,7.20
2018-09-28T00:35:57.058Z,7.60
2018-09-28T00:38:27.875Z,7.60
2018-09-28T00:40:55.897Z,7.60
2018-09-28T00:43:30.254Z,7.60
2018-09-28T00:46:03.279Z,7.70
2018-09-28T00:48:31.627Z,7.70
2018-09-28T00:50:59.767Z,7.80
2018-09-28T00:53:30.687Z,7.90
2018-09-28T00:55:58.809Z,8.10
2018-09-28T00:58:33.085Z,8.10
2018-09-28T01:01:04.049Z,8.20
2018-09-28T01:03:32.062Z,8.20
2018-09-28T01:06:07.410Z,8.20
2018-09-28T01:08:40.638Z,8.20
2018-09-28T01:11:08.982Z,8.20
2018-09-28T01:13:37.189Z,8.20
2018-09-28T01:16:09.516Z,8.20
2018-09-28T01:18:40.626Z,8.20
2018-09-28T01:21:10.761Z,8.20
2018-09-28T01:23:38.901Z,8.30
2018-09-28T01:26:18.687Z,8.30
2018-09-28T01:28:46.917Z,8.50
2018-09-28T01:31:21.334Z,8.50
2018-09-28T01:33:57.835Z,8.60
2018-09-28T01:36:32.346Z,8.80
2018-09-28T01:39:05.801Z,8.90
2018-09-28T01:41:38.166Z,9.10
2018-09-28T01:44:14.789Z,9.20
2018-09-28T01:46:42.973Z,9.40
2018-09-28T01:49:13.781Z,9.50
2018-09-28T01:51:41.981Z,9.70
2018-09-28T01:54:15.061Z,9.80
2018-09-28T01:56:45.269Z,10.00
2018-09-28T01:59:13.359Z,10.10
2018-09-28T02:01:53.008Z,10.30
2018-09-28T02:04:24.118Z,10.40
2018-09-28T02:06:56.288Z,10.50
2018-09-28T02:09:24.814Z,10.60
2018-09-28T02:11:54.975Z,10.70
2018-09-28T02:14:23.232Z,10.80
2018-09-28T02:17:01.316Z,10.90
2018-09-28T02:19:33.718Z,10.90
2018-09-28T02:22:03.889Z,11.00
2018-09-28T02:24:31.946Z,11.10
2018-09-28T02:27:02.972Z,11.10
2018-09-28T02:29:31.337Z,11.10
2018-09-28T02:31:59.451Z,11.20
2018-09-28T02:34:34.714Z,11.20
2018-09-28T02:37:15.687Z,11.20
2018-09-28T02:39:44.014Z,11.20
2018-09-28T02:42:16.289Z,11.20
2018-09-28T02:44:53.992Z,11.20
2018-09-28T02:47:22.210Z,11.20
2018-09-28T02:50:04.081Z,11.20
2018-09-28T02:52:32.142Z,11.20
2018-09-28T02:55:06.559Z,11.20
2018-09-28T02:57:43.950Z,11.20
2018-09-28T03:00:18.443Z,11.20
2018-09-28T03:02:54.971Z,11.20
2018-09-28T03:05:27.054Z,11.30
2018-09-28T03:08:00.379Z,11.30
2018-09-28T03:10:30.512Z,11.30
2018-09-28T03:12:58.625Z,11.30
2018-09-28T03:15:29.521Z,11.30
2018-09-28T03:17:57.588Z,11.30
2018-09-28T03:20:30.732Z,11.30
2018-09-28T03:23:01.064Z,11.30
2018-09-28T03:25:29.498Z,11.30
2018-09-28T03:27:57.561Z,11.30
2018-09-28T03:30:29.716Z,11.30
2018-09-28T03:33:00.763Z,11.30
2018-09-28T03:35:33.061Z,11.30
2018-09-28T03:38:07.544Z,11.30
2018-09-28T03:40:42.325Z,11.30
2018-09-28T03:43:10.382Z,11.30
2018-09-28T03:45:41.565Z,11.30
2018-09-28T03:48:15.616Z,11.30
2018-09-28T03:50:43.984Z,11.30
2018-09-28T03:53:14.983Z,11.30
2018-09-28T03:55:54.662Z,11.30
2018-09-28T03:58:25.513Z,11.30
2018-09-28T04:00:53.584Z,11.30
2018-09-28T04:03:33.773Z,11.30
2018-09-28T04:06:07.426Z,11.30
2018-09-28T04:08:38.292Z,11.30
2018-09-28T04:11:06.408Z,11.30
2018-09-28T04:13:40.882Z,11.30
2018-09-28T04:16:15.440Z,11.30
2018-09-28T04:18:52.561Z,11.30
2018-09-28T04:21:25.958Z,11.30
2018-09-28T04:24:04.195Z,11.30
2018-09-28T04:26:37.492Z,11.30
2018-09-28T04:29:05.548Z,11.30
2018-09-28T04:31:40.200Z,11.30
2018-09-28T04:34:11.369Z,11.30
2018-09-28T04:36:46.934Z,11.30
2018-09-28T04:39:18.015Z,11.30
2018-09-28T04:41:48.310Z,11.30
2018-09-28T04:44:16.614Z,11.30
2018-09-28T04:46:44.668Z,11.30
2018-09-28T04:49:15.764Z,11.40
2018-09-28T04:51:43.980Z,11.40
2018-09-28T04:54:18.398Z,11.40
2018-09-28T04:56:52.476Z,11.40
2018-09-28T04:59:32.455Z,11.40
2018-09-28T05:02:00.699Z,11.50
2018-09-28T05:04:35.112Z,11.50
2018-09-28T05:07:10.240Z,11.50
2018-09-28T05:09:40.462Z,11.50
2018-09-28T05:12:08.891Z,11.60
2018-09-28T05:14:36.944Z,11.60
2018-09-28T05:17:07.806Z,11.60
2018-09-28T05:19:36.080Z,11.60
2018-09-28T05:22:19.709Z,11.70
2018-09-28T05:24:47.820Z,11.70
2018-09-28T05:27:22.305Z,11.70
2018-09-28T05:29:56.799Z,11.70
2018-09-28T05:32:27.911Z,11.70
2018-09-28T05:34:56.173Z,11.70
2018-09-28T05:37:24.443Z,11.70
2018-09-28T05:39:52.529Z,11.80
2018-09-28T05:42:29.570Z,11.90
2018-09-28T05:44:57.643Z,11.80
2018-09-28T05:47:30.630Z,11.80
2018-09-28T05:49:58.968Z,11.80
2018-09-28T05:52:27.103Z,11.90
2018-09-28T05:55:01.485Z,11.90
2018-09-28T05:57:41.228Z,11.90
2018-09-28T06:00:16.845Z,11.90
2018-09-28T06:02:51.004Z,11.90
2018-09-28T06:08:03.881Z,12.00
2018-09-28T06:10:32.040Z,12.00
2018-09-28T06:13:07.619Z,12.00
2018-09-28T06:15:42.791Z,12.00
2018-09-28T06:18:16.039Z,12.00
2018-09-28T06:20:47.327Z,12.10
2018-09-28T06:23:15.510Z,12.10
2018-09-28T06:25:56.037Z,12.10
2018-09-28T06:28:24.245Z,12.10
2018-09-28T06:30:58.714Z,12.10
2018-09-28T06:33:36.300Z,12.20
2018-09-28T06:36:08.444Z,12.20
2018-09-28T06:38:48.291Z,12.20
2018-09-28T06:41:16.358Z,12.20
2018-09-28T06:43:49.070Z,12.20
2018-09-28T06:46:25.546Z,12.20
2018-09-28T06:49:03.294Z,12.20
2018-09-28T06:51:31.392Z,12.20
2018-09-28T06:54:05.357Z,12.20
2018-09-28T06:56:36.413Z,12.20
2018-09-28T06:59:08.810Z,12.20
2018-09-28T07:01:42.604Z,12.20
2018-09-28T07:04:10.847Z,12.30
2018-09-28T07:09:16.639Z,12.30
2018-09-28T07:11:58.448Z,12.30
2018-09-28T07:14:26.626Z,12.30
2018-09-28T07:16:59.753Z,12.30
2018-09-28T07:19:39.610Z,12.30
2018-09-28T07:22:07.785Z,12.20
2018-09-28T07:24:42.252Z,12.20
2018-09-28T07:29:49.977Z,12.30
2018-09-28T07:32:25.228Z,12.30
2018-09-28T07:34:56.261Z,12.30
2018-09-28T07:37:24.304Z,12.30
2018-09-28T07:40:02.406Z,12.30
2018-09-28T07:42:30.581Z,12.40
2018-09-28T07:45:03.171Z,12.30
2018-09-28T07:47:31.222Z,12.40
2018-09-28T07:50:03.635Z,12.50
2018-09-28T07:52:31.781Z,12.40
2018-09-28T07:54:59.832Z,12.50
2018-09-28T07:57:35.120Z,12.50
2018-09-28T08:00:08.494Z,12.50
2018-09-28T08:02:41.873Z,12.60
2018-09-28T08:05:23.719Z,12.60
2018-09-28T08:07:51.923Z,12.60
2018-09-28T08:10:33.557Z,12.70
2018-09-28T08:13:11.089Z,12.70
2018-09-28T08:15:39.211Z,12.80
2018-09-28T08:18:14.641Z,12.90
2018-09-28T08:20:48.892Z,13.00
2018-09-28T08:23:20.142Z,13.10
2018-09-28T08:25:48.528Z,13.20
2018-09-28T08:28:16.675Z,13.30
2018-09-28T08:30:48.974Z,13.30
2018-09-28T08:33:19.756Z,13.30
2018-09-28T08:35:50.023Z,13.40
2018-09-28T08:38:29.927Z,13.50
2018-09-28T08:40:58.101Z,13.60
2018-09-28T08:43:30.547Z,13.70
2018-09-28T08:46:02.974Z,13.90
2018-09-28T08:48:37.514Z,14.00
2018-09-28T08:51:08.982Z,14.00
2018-09-28T08:53:41.427Z,14.10
2018-09-28T08:56:12.208Z,14.20
2018-09-28T08:58:40.426Z,14.10
2018-09-28T09:01:13.464Z,14.00
2018-09-28T09:03:49.449Z,14.10
2018-09-28T09:06:17.522Z,14.20
2018-09-28T09:08:48.386Z,14.30
2018-09-28T09:11:16.502Z,14.50
2018-09-28T09:13:48.184Z,14.60
2018-09-28T09:16:22.398Z,14.80
2018-09-28T09:18:51.842Z,14.70
2018-09-28T09:21:27.790Z,14.80
2018-09-28T09:23:55.861Z,14.90
2018-09-28T09:26:31.871Z,14.90
2018-09-28T09:29:00.064Z,14.80
2018-09-28T09:31:31.206Z,14.70
2018-09-28T09:34:05.508Z,14.70
2018-09-28T09:36:37.718Z,14.70
2018-09-28T09:39:10.033Z,14.80
2018-09-28T09:41:38.162Z,14.80
2018-09-28T09:44:12.581Z,14.90
2018-09-28T09:46:45.658Z,15.10
2018-09-28T09:49:14.208Z,15.30
2018-09-28T09:51:44.386Z,15.60
2018-09-28T09:54:12.627Z,15.80
2018-09-28T09:56:52.509Z,16.00
2018-09-28T09:59:22.771Z,16.20
2018-09-28T10:01:56.298Z,16.20
2018-09-28T10:04:24.386Z,16.20
2018-09-28T10:07:01.952Z,16.10
2018-09-28T10:09:35.232Z,15.80
2018-09-28T10:12:10.665Z,15.70
2018-09-28T10:14:46.039Z,15.80
2018-09-28T10:17:18.231Z,15.90
2018-09-28T10:19:48.624Z,16.00
2018-09-28T10:22:17.005Z,15.80
2018-09-28T10:24:45.152Z,15.60
2018-09-28T10:27:16.517Z,15.60
2018-09-28T10:29:52.118Z,15.80
2018-09-28T10:32:24.474Z,15.90
2018-09-28T10:34:57.533Z,16.00
2018-09-28T10:37:27.788Z,16.00
2018-09-28T10:39:55.850Z,16.00
2018-09-28T10:42:25.957Z,15.90
2018-09-28T10:44:56.171Z,15.90
2018-09-28T10:47:24.288Z,16.00
2018-09-28T10:49:55.294Z,16.00
2018-09-28T10:52:23.561Z,16.10
2018-09-28T10:54:55.564Z,16.00
2018-09-28T10:57:35.297Z,16.20
2018-09-28T11:00:07.647Z,16.10
2018-09-28T11:02:41.805Z,16.20
2018-09-28T11:05:11.155Z,16.20
2018-09-28T11:07:39.580Z,16.10
2018-09-28T11:10:07.892Z,16.10
2018-09-28T11:12:35.979Z,16.00
2018-09-28T11:15:18.929Z,16.00
2018-09-28T11:17:46.997Z,16.20
2018-09-28T11:20:21.589Z,16.40
2018-09-28T11:22:56.569Z,16.50
2018-09-28T11:25:34.443Z,16.60
2018-09-28T11:28:02.494Z,16.60
2018-09-28T11:30:36.534Z,16.60
2018-09-28T11:33:04.681Z,16.60
2018-09-28T11:35:38.883Z,16.40
2018-09-28T11:38:11.213Z,16.40
2018-09-28T11:40:51.822Z,16.30
2018-09-28T11:43:24.996Z,16.30
2018-09-28T11:45:55.084Z,16.20
2018-09-28T11:48:28.250Z,16.10
2018-09-28T11:51:00.439Z,16.00
2018-09-28T11:53:28.897Z,15.80
2018-09-28T11:55:56.947Z,15.70
2018-09-28T11:58:29.271Z,15.60
2018-09-28T12:01:03.428Z,15.70
2018-09-28T12:03:39.619Z,15.80
2018-09-28T12:06:07.693Z,16.00
2018-09-28T12:08:43.213Z,16.10
2018-09-28T12:11:15.322Z,16.20
2018-09-28T12:13:50.488Z,16.10
2018-09-28T12:16:18.868Z,16.20
2018-09-28T12:18:47.100Z,16.30
2018-09-28T12:21:21.645Z,16.30
2018-09-28T12:23:49.761Z,16.40
2018-09-28T12:26:22.258Z,16.50
2018-09-28T12:28:54.397Z,16.70
2018-09-28T12:31:22.721Z,16.80
2018-09-28T12:33:50.921Z,16.90
2018-09-28T12:36:24.008Z,17.00
2018-09-28T12:38:54.554Z,16.80
2018-09-28T12:41:26.229Z,16.50
2018-09-28T12:44:00.515Z,16.70
2018-09-28T12:46:33.723Z,16.80
2018-09-28T12:49:03.745Z,16.70
2018-09-28T12:51:40.236Z,16.60
2018-09-28T12:54:12.513Z,16.60
2018-09-28T12:56:45.787Z,16.60
2018-09-28T12:59:18.793Z,16.70
2018-09-28T13:01:46.915Z,16.60
2018-09-28T13:04:22.419Z,16.70
2018-09-28T13:06:58.894Z,16.60
2018-09-28T13:09:36.547Z,16.60
2018-09-28T13:12:04.628Z,16.60
2018-09-28T13:14:35.859Z,16.70
2018-09-28T13:17:06.567Z,16.60
2018-09-28T13:19:41.754Z,16.60
2018-09-28T13:22:22.227Z,16.70
2018-09-28T13:24:55.215Z,16.60
2018-09-28T13:27:23.285Z,16.60
2018-09-28T13:29:55.475Z,16.50
2018-09-28T13:32:26.645Z,16.50
2018-09-28T13:34:54.842Z,16.30
2018-09-28T13:37:29.400Z,16.10
2018-09-28T13:40:03.680Z,15.80
2018-09-28T13:42:34.649Z,15.60
2018-09-28T13:45:02.948Z,15.60
2018-09-28T13:47:35.199Z,15.70
2018-09-28T13:50:09.704Z,15.90
2018-09-28T13:52:40.530Z,16.10
2018-09-28T13:55:08.806Z,16.30
2018-09-28T13:57:36.898Z,16.40
2018-09-28T14:00:09.817Z,16.30
2018-09-28T14:02:38.057Z,16.10
2018-09-28T14:05:08.970Z,16.10
2018-09-28T14:07:37.065Z,16.00
2018-09-28T14:10:09.324Z,16.00
2018-09-28T14:12:41.413Z,15.90
2018-09-28T14:15:09.446Z,16.00
2018-09-28T14:17:41.713Z,16.20
2018-09-28T14:22:54.759Z,16.30
2018-09-28T14:25:30.072Z,16.20
2018-09-28T14:28:10.545Z,16.10
2018-09-28T14:30:45.160Z,15.90
2018-09-28T14:33:15.407Z,15.80
2018-09-28T14:35:55.880Z,15.70
2018-09-28T14:38:30.282Z,15.50
2018-09-28T14:41:01.159Z,15.40
2018-09-28T14:43:29.217Z,15.20
2018-09-28T14:46:00.388Z,15.10
2018-09-28T14:48:36.819Z,15.00
2018-09-28T14:51:04.684Z,14.90
2018-09-28T14:53:40.322Z,14.80
2018-09-28T14:56:10.531Z,14.80
2018-09-28T14:58:50.472Z,14.90
2018-09-28T15:01:18.925Z,14.90
2018-09-28T15:03:46.842Z,14.80
2018-09-28T15:06:17.734Z,14.70
2018-09-28T15:08:45.815Z,14.80
2018-09-28T15:11:16.671Z,14.80
2018-09-28T15:13:44.821Z,14.80
2018-09-28T15:16:25.324Z,14.80
2018-09-28T15:19:05.398Z,14.70
2018-09-28T15:21:35.497Z,14.80
2018-09-28T15:24:03.682Z,14.70
2018-09-28T15:26:34.647Z,14.70
2018-09-28T15:29:02.810Z,14.70
2018-09-28T15:31:42.641Z,14.60
2018-09-28T15:34:10.828Z,14.60
2018-09-28T15:36:38.863Z,14.60
2018-09-28T15:39:09.951Z,14.60
2018-09-28T15:41:38.013Z,14.50
2018-09-28T15:44:14.590Z,14.40
2018-09-28T15:46:47.385Z,14.40
2018-09-28T15:49:15.817Z,14.30
2018-09-28T15:51:43.920Z,14.20
2018-09-28T15:54:18.403Z,14.20
2018-09-28T15:56:49.419Z,14.20
2018-09-28T15:59:17.623Z,14.10
2018-09-28T16:01:45.723Z,14.00
2018-09-28T16:04:20.551Z,13.90
2018-09-28T16:06:48.607Z,13.80
2018-09-28T16:09:20.788Z,13.80
2018-09-28T16:11:49.030Z,13.80
2018-09-28T16:14:17.109Z,13.80
2018-09-28T16:16:48.013Z,13.80
2018-09-28T16:19:16.133Z,13.70
2018-09-28T16:21:49.171Z,13.60
2018-09-28T16:24:17.510Z,13.60
2018-09-28T16:26:45.759Z,13.50
2018-09-28T16:29:22.283Z,13.50
2018-09-28T16:31:53.207Z,13.40
2018-09-28T16:34:21.503Z,13.40
2018-09-28T16:36:50.165Z,13.30
2018-09-28T16:39:18.442Z,13.20
2018-09-28T16:41:46.546Z,13.20
2018-09-28T16:44:21.112Z,13.10
2018-09-28T16:46:55.726Z,13.10
2018-09-28T16:49:23.983Z,13.00
2018-09-28T16:51:55.058Z,12.90
2018-09-28T16:54:25.134Z,12.90
2018-09-28T16:56:56.219Z,12.80
2018-09-28T16:59:29.348Z,12.80
2018-09-28T17:01:57.676Z,12.70
2018-09-28T17:04:25.887Z,12.60
2018-09-28T17:06:58.908Z,12.50
2018-09-28T17:09:29.107Z,12.50
2018-09-28T17:11:57.205Z,12.40
2018-09-28T17:14:31.528Z,12.30
2018-09-28T17:17:12.206Z,12.20
2018-09-28T17:19:49.797Z,12.20
2018-09-28T17:22:17.912Z,12.10
2018-09-28T17:24:50.330Z,12.00
2018-09-28T17:27:24.683Z,12.00
2018-09-28T17:30:04.435Z,11.90
2018-09-28T17:32:39.072Z,11.80
2018-09-28T17:35:07.384Z,11.80
2018-09-28T17:37:42.071Z,11.70
2018-09-28T17:40:10.527Z,11.70
2018-09-28T17:42:38.679Z,11.60
2018-09-28T17:45:14.262Z,11.50
2018-09-28T17:47:48.638Z,11.50
2018-09-28T17:50:23.210Z,11.50
2018-09-28T17:52:54.323Z,11.40
2018-09-28T17:55:25.495Z,11.40
2018-09-28T17:57:53.712Z,11.40
2018-09-28T18:00:21.968Z,11.30
2018-09-28T18:02:55.515Z,11.30
2018-09-28T18:05:28.493Z,11.20
2018-09-28T18:07:58.698Z,11.20
2018-09-28T18:10:26.823Z,11.10
2018-09-28T18:13:01.216Z,11.10
2018-09-28T18:15:32.257Z,11.00
2018-09-28T18:18:00.323Z,11.00
2018-09-28T18:20:34.749Z,10.90
2018-09-28T18:23:07.670Z,10.90
2018-09-28T18:25:35.903Z,10.80
2018-09-28T18:28:04.028Z,10.80
2018-09-28T18:30:40.083Z,10.80
2018-09-28T18:33:08.429Z,10.80
2018-09-28T18:35:36.586Z,10.80
2018-09-28T18:38:10.994Z,10.80
2018-09-28T18:40:46.425Z,10.80
2018-09-28T18:43:23.198Z,10.70
2018-09-28T18:45:51.755Z,10.70
2018-09-28T18:48:19.779Z,10.70
2018-09-28T18:50:52.167Z,10.70
2018-09-28T18:53:25.445Z,10.60
2018-09-28T18:55:55.566Z,10.60
2018-09-28T18:58:23.648Z,10.60
2018-09-28T19:01:00.031Z,10.60
2018-09-28T19:03:32.253Z,10.50
2018-09-28T19:06:00.639Z,10.40
2018-09-28T19:08:28.735Z,10.40
2018-09-28T19:13:36.464Z,10.20
2018-09-28T19:16:14.438Z,10.10
2018-09-28T19:18:42.640Z,10.10
2018-09-28T19:21:12.914Z,10.00
2018-09-28T19:23:46.791Z,10.00
2018-09-28T19:26:15.006Z,9.90
2018-09-28T19:28:48.607Z,9.80
2018-09-28T19:31:16.808Z,9.60
2018-09-28T19:33:47.708Z,9.50
2018-09-28T19:36:16.113Z,9.30
2018-09-28T19:38:44.275Z,9.20
2018-09-28T19:41:15.128Z,9.10
2018-09-28T19:43:43.229Z,8.90
2018-09-28T19:46:18.120Z,8.80
2018-09-28T19:48:46.351Z,8.70
2018-09-28T19:51:16.775Z,8.50
2018-09-28T19:53:53.333Z,8.40
2018-09-28T19:56:25.710Z,8.30
2018-09-28T19:58:59.055Z,8.20
2018-09-28T20:01:32.486Z,8.10
2018-09-28T20:04:13.395Z,8.00
2018-09-28T20:06:41.574Z,7.90
2018-09-28T20:09:12.300Z,7.80
2018-09-28T20:11:40.821Z,7.80
2018-09-28T20:14:08.993Z,7.70
2018-09-28T20:16:40.016Z,7.60
2018-09-28T20:19:11.665Z,7.50
2018-09-28T20:21:40.057Z,7.50
2018-09-28T20:24:14.079Z,7.40
2018-09-28T20:26:42.150Z,7.40
2018-09-28T20:29:15.214Z,7.30
2018-09-28T20:31:43.309Z,7.20
2018-09-28T20:34:20.805Z,7.10
2018-09-28T20:36:53.050Z,7.00
2018-09-28T20:39:24.082Z,7.10
2018-09-28T20:41:52.226Z,6.90
2018-09-28T20:44:28.720Z,6.80
2018-09-28T20:47:01.090Z,6.80
2018-09-28T20:49:34.070Z,6.70
2018-09-28T20:52:04.218Z,6.70
2018-09-28T20:54:32.300Z,6.60
2018-09-28T20:57:03.247Z,6.60
2018-09-28T20:59:31.391Z,6.60
2018-09-28T21:02:02.856Z,6.50
2018-09-28T21:04:37.303Z,6.50
2018-09-28T21:07:09.632Z,6.50
2018-09-28T21:09:43.161Z,6.50
2018-09-28T21:12:14.300Z,6.40
2018-09-28T21:14:42.572Z,6.40
2018-09-28T21:17:10.645Z,6.30
2018-09-28T21:19:44.034Z,6.30
2018-09-28T21:22:14.882Z,6.20
2018-09-28T21:24:42.965Z,6.30
2018-09-28T21:27:14.337Z,6.30
2018-09-28T21:29:46.670Z,6.30
2018-09-28T21:32:14.875Z,6.20
2018-09-28T21:34:43.019Z,6.20
2018-09-28T21:37:22.940Z,6.20
2018-09-28T21:39:51.429Z,6.20
2018-09-28T21:42:19.504Z,6.20
2018-09-28T21:44:54.172Z,6.20
2018-09-28T21:47:22.316Z,6.20
2018-09-28T21:49:57.782Z,6.10
2018-09-28T21:52:30.876Z,6.10
2018-09-28T21:54:59.150Z,6.10
2018-09-28T21:57:27.270Z,6.10
2018-09-28T22:00:01.830Z,6.10
2018-09-28T22:02:32.863Z,6.10
2018-09-28T22:05:04.031Z,6.00
2018-09-28T22:07:32.373Z,6.00
2018-09-28T22:10:06.142Z,6.00
2018-09-28T22:12:34.426Z,6.00
2018-09-28T22:15:02.545Z,6.00
2018-09-28T22:17:37.819Z,5.90
2018-09-28T22:20:08.839Z,5.90
2018-09-28T22:22:36.878Z,5.90
2018-09-28T22:25:08.170Z,5.90
2018-09-28T22:27:47.729Z,5.80
2018-09-28T22:30:21.223Z,5.80
2018-09-28T22:32:54.826Z,5.20
2018-09-28T22:35:27.720Z,5.60
2018-09-28T22:37:55.815Z,5.50
2018-09-28T22:40:35.526Z,5.50
2018-09-28T22:43:03.708Z,5.40
2018-09-28T22:45:36.142Z,5.30
2018-09-28T22:48:10.640Z,5.20
2018-09-28T22:50:41.667Z,5.10
2018-09-28T22:53:12.939Z,5.00
2018-09-28T22:55:41.381Z,5.00
2018-09-28T22:58:09.509Z,4.90
2018-09-28T23:00:43.996Z,4.90
2018-09-28T23:03:16.401Z,4.80
2018-09-28T23:05:50.607Z,4.80
2018-09-28T23:08:28.918Z,4.80
2018-09-28T23:10:59.031Z,4.70
2018-09-28T23:13:27.110Z,4.70
2018-09-28T23:16:07.429Z,4.60
2018-09-28T23:18:38.709Z,4.60
2018-09-28T23:21:07.065Z,4.60
2018-09-28T23:23:35.272Z,4.60
2018-09-28T23:26:15.113Z,4.50
2018-09-28T23:28:45.283Z,4.50
2018-09-28T23:31:13.360Z,4.50
2018-09-28T23:33:45.899Z,4.50
2018-09-28T23:36:18.014Z,4.40
2018-09-28T23:38:49.479Z,4.40
2018-09-28T23:41:17.774Z,4.30
2018-09-28T23:43:45.803Z,4.30
2018-09-28T23:46:20.122Z,4.30
2018-09-28T23:48:53.635Z,4.30
2018-09-28T23:51:26.788Z,4.20
2018-09-28T23:53:54.963Z,4.20
2018-09-28T23:56:23.407Z,4.10
2018-09-28T23:58:54.367Z,4.10
